Terminal Aerodrome Forecast
Issued by NWS

Home | Current Version | Previous Version | Text Only | Print | Product List | Glossary On
Versions: 1 2 3 4 5 6 7 8 9 10 11 12 13 14 15
000
FTUS46 KSTO 051120
TAFMHR
TAF
KMHR 051120Z 0512/0612 14007KT P6SM SKC
     FM051800 22008KT P6SM SKC
     FM052200 22012G20KT P6SM SCT250
     FM060700 16009KT P6SM FEW250
      AMD NOT SKED=

USA.gov is the U.S. government's official web portal to all federal, state and local government web resources and services.